Time;durP1;ratioP1;P1;durP2;ratioP2;P2;SDS_P1;SDS_P2;PMS_P1;PMS_P2;Temp;Humidity;BMP_temperature;BMP_pressure;BME280_temperature;BME280_humidity;BME280_pressure;Samples;Min_cycle;Max_cycle;Signal;HPM_P1;HPM_P2
2022/01/15 00:00:53;;;;;;;;;79.00;58.25;;;;;8.61;56.29;102544.34;4951453;28;45020;-72
2022/01/15 00:03:19;;;;;;;;;80.75;61.00;;;;;8.57;56.33;102535.25;4947011;28;45059;-73
2022/01/15 00:05:45;;;;;;;;;182.00;150.25;;;;;8.49;56.68;102517.88;4944769;28;47219;-72
2022/01/15 00:08:10;;;;;;;;;70.25;52.00;;;;;8.62;56.28;102532.88;4926943;28;45237;-73
2022/01/15 00:10:36;;;;;;;;;70.50;51.25;;;;;8.69;57.03;102543.09;4942549;28;45191;-72
2022/01/15 00:13:02;;;;;;;;;81.25;60.75;;;;;8.53;56.58;102519.91;4933867;28;45445;-73
2022/01/15 00:15:32;;;;;;;;;70.25;54.00;;;;;8.24;56.20;102462.09;4940496;28;45561;-72
2022/01/15 00:18:01;;;;;;;;;70.50;53.50;;;;;8.48;56.74;102522.28;4927577;28;45398;-72
2022/01/15 00:20:28;;;;;;;;;72.50;55.75;;;;;8.63;55.90;102540.06;4937403;28;45337;-72
2022/01/15 00:22:56;;;;;;;;;77.00;56.50;;;;;8.62;56.19;102536.47;4927125;28;45403;-72
2022/01/15 00:25:23;;;;;;;;;81.25;60.50;;;;;8.46;56.20;102512.34;4942174;28;45466;-73
2022/01/15 00:27:48;;;;;;;;;81.75;61.00;;;;;8.64;57.29;102537.47;4927585;28;45663;-71
2022/01/15 00:30:15;;;;;;;;;75.50;57.75;;;;;8.65;57.18;102535.75;4935957;28;45398;-72
2022/01/15 00:32:41;;;;;;;;;170.67;145.00;;;;;8.66;57.90;102534.91;4940020;28;45001;-72
2022/01/15 00:35:09;;;;;;;;;86.50;64.00;;;;;8.67;57.51;102539.44;4948113;28;45483;-72
2022/01/15 00:37:34;;;;;;;;;80.50;61.25;;;;;8.68;57.46;102530.63;4940775;28;45140;-73
2022/01/15 00:40:02;;;;;;;;;81.00;60.75;;;;;8.65;57.75;102523.34;4942046;28;45056;-72
2022/01/15 00:42:29;;;;;;;;;71.50;56.25;;;;;8.62;57.69;102525.81;4937865;28;45346;-72
2022/01/15 00:44:55;;;;;;;;;77.00;59.00;;;;;8.58;56.55;102518.47;4939654;28;45616;-73
2022/01/15 00:47:21;;;;;;;;;71.75;54.00;;;;;8.54;57.18;102520.81;4937326;28;45389;-72
2022/01/15 00:49:46;;;;;;;;;69.25;55.75;;;;;8.53;56.16;102513.66;4942859;28;45348;-72
2022/01/15 00:52:11;;;;;;;;;117.33;95.33;;;;;8.51;57.55;102513.53;4943737;28;45197;-72
2022/01/15 00:54:37;;;;;;;;;84.75;61.75;;;;;8.47;57.66;102506.22;4938749;28;45428;-72
2022/01/15 00:57:02;;;;;;;;;85.00;64.50;;;;;8.36;56.89;102493.91;4946563;28;45226;-73
2022/01/15 00:59:28;;;;;;;;;77.75;60.00;;;;;8.49;57.59;102516.13;4938573;28;45242;-71
2022/01/15 01:01:53;;;;;;;;;121.33;103.00;;;;;8.42;56.94;102504.97;4931414;28;45336;-72
2022/01/15 01:04:19;;;;;;;;;78.50;57.50;;;;;8.47;56.83;102514.19;4941561;28;47021;-73
2022/01/15 01:06:44;;;;;;;;;71.75;53.75;;;;;8.42;56.45;102491.66;4919708;28;45532;-71
2022/01/15 01:09:10;;;;;;;;;73.00;55.25;;;;;8.49;57.26;102502.78;4930643;28;45292;-72
2022/01/15 01:11:54;;;;;;;;;82.00;62.50;;;;;8.32;56.87;102473.25;4944643;28;44932;-72
2022/01/15 01:20:10;;;;;;;;;78.25;56.50;;;;;8.24;56.54;102457.69;4939938;28;45219;-72
2022/01/15 01:25:10;;;;;;;;;65.00;46.75;;;;;8.27;56.11;102465.88;4942879;28;45172;-72
2022/01/15 01:27:46;;;;;;;;;61.25;49.25;;;;;8.34;56.31;102485.81;4949041;28;45219;-72
2022/01/15 01:30:24;;;;;;;;;71.50;55.25;;;;;8.14;56.40;102459.69;4942009;28;45066;-73
2022/01/15 01:35:30;;;;;;;;;70.75;50.50;;;;;8.32;56.49;102471.50;4945660;28;45146;-73
2022/01/15 01:37:59;;;;;;;;;71.50;51.00;;;;;8.03;56.34;102421.72;4942206;28;45018;-72
2022/01/15 01:40:36;;;;;;;;;71.00;51.50;;;;;8.29;56.50;102476.63;4936353;28;45127;-73
2022/01/15 01:43:51;;;;;;;;;70.50;52.75;;;;;8.28;56.07;102474.78;4935532;28;45138;-73
2022/01/15 01:45:54;;;;;;;;;72.00;54.00;;;;;8.25;56.20;102474.56;4932913;28;45578;-72
2022/01/15 01:48:20;;;;;;;;;64.00;52.00;;;;;8.23;55.36;102469.19;4935797;28;45299;-71
2022/01/15 01:50:45;;;;;;;;;65.25;52.25;;;;;8.20;56.24;102476.03;4930781;28;45482;-73
2022/01/15 01:53:11;;;;;;;;;67.50;52.00;;;;;8.11;55.38;102452.41;4920170;28;45558;-74
2022/01/15 01:55:36;;;;;;;;;70.25;52.00;;;;;8.10;56.24;102455.88;4930722;28;46083;-72
2022/01/15 01:58:02;;;;;;;;;77.00;55.00;;;;;8.20;55.77;102470.69;4930795;28;45560;-72
2022/01/15 02:00:30;;;;;;;;;60.00;44.25;;;;;7.97;55.68;102435.56;4926813;28;45468;-73
2022/01/15 02:02:56;;;;;;;;;65.50;52.25;;;;;8.19;56.41;102455.56;4928432;28;45517;-72
2022/01/15 02:05:23;;;;;;;;;61.75;50.00;;;;;8.01;55.40;102434.94;4928471;28;45992;-72
2022/01/15 02:07:49;;;;;;;;;72.00;50.00;;;;;8.09;56.42;102436.34;4933225;28;45529;-72
2022/01/15 02:10:18;;;;;;;;;63.75;48.25;;;;;8.03;55.35;102424.38;4930892;28;45548;-73
2022/01/15 02:12:45;;;;;;;;;73.25;54.25;;;;;8.19;55.24;102456.47;4940746;28;45491;-73
2022/01/15 02:15:14;;;;;;;;;69.00;51.00;;;;;8.19;55.43;102447.59;4940754;28;46377;-73
2022/01/15 02:17:40;;;;;;;;;64.25;48.75;;;;;8.08;55.66;102425.59;4939546;28;45207;-71
2022/01/15 02:25:44;;;;;;;;;72.00;55.25;;;;;8.19;56.37;102435.19;4943612;28;45480;-72
2022/01/15 02:28:10;;;;;;;;;69.75;53.00;;;;;8.12;56.10;102419.66;4935789;28;45462;-73
2022/01/15 02:30:36;;;;;;;;;70.75;53.00;;;;;8.03;55.61;102405.75;4938445;28;45769;-72
2022/01/15 02:33:01;;;;;;;;;70.25;53.50;;;;;8.09;56.65;102416.78;4939798;28;45075;-72
2022/01/15 02:35:28;;;;;;;;;60.50;48.25;;;;;8.15;55.97;102430.50;4933561;28;45509;-72
2022/01/15 02:37:53;;;;;;;;;66.50;51.00;;;;;7.99;56.19;102399.31;4932191;28;45407;-73
2022/01/15 02:40:19;;;;;;;;;63.50;49.25;;;;;7.68;55.81;102352.13;4912674;28;45549;-73
2022/01/15 02:42:44;;;;;;;;;55.25;45.00;;;;;8.07;55.93;102411.38;4915380;28;45397;-72
2022/01/15 02:45:11;;;;;;;;;55.75;45.50;;;;;8.09;55.06;102422.13;4934153;28;45379;-72
2022/01/15 02:50:22;;;;;;;;;59.25;44.75;;;;;8.14;55.16;102433.06;4933367;28;45272;-72
2022/01/15 02:52:48;;;;;;;;;74.00;54.75;;;;;8.11;55.11;102434.69;4941745;28;45063;-72
2022/01/15 02:55:13;;;;;;;;;66.00;54.00;;;;;8.11;56.40;102426.69;4926913;28;45508;-72
2022/01/15 02:57:38;;;;;;;;;66.50;53.75;;;;;7.99;56.20;102403.72;4930146;28;45658;-71
2022/01/15 03:00:05;;;;;;;;;71.00;53.75;;;;;8.11;56.86;102412.47;4928788;28;45458;-72
2022/01/15 03:02:33;;;;;;;;;75.50;55.25;;;;;7.88;56.73;102380.00;4920918;28;45395;-72
2022/01/15 03:04:58;;;;;;;;;72.00;52.75;;;;;7.98;56.72;102393.91;4922312;28;45510;-71
2022/01/15 03:07:24;;;;;;;;;68.75;50.75;;;;;7.99;57.58;102395.75;4939365;28;45439;-72
2022/01/15 03:09:50;;;;;;;;;82.25;61.25;;;;;8.07;57.66;102405.13;4939507;28;45324;-72
2022/01/15 03:12:15;;;;;;;;;80.00;59.25;;;;;7.83;57.37;102377.88;4942406;28;45678;-71
2022/01/15 03:14:42;;;;;;;;;82.50;62.50;;;;;7.99;57.55;102393.09;4918138;28;47588;-72
2022/01/15 03:17:07;;;;;;;;;84.50;61.50;;;;;8.04;57.81;102404.94;4926284;28;45315;-72
2022/01/15 03:19:33;;;;;;;;;82.00;60.25;;;;;7.91;58.39;102377.53;4928445;28;45606;-72
2022/01/15 03:21:58;;;;;;;;;84.25;60.75;;;;;8.09;57.77;102408.81;4923711;28;45265;-72
2022/01/15 03:24:23;;;;;;;;;87.50;68.00;;;;;7.63;58.51;102326.06;4922589;28;48905;-72
2022/01/15 03:26:48;;;;;;;;;83.00;62.75;;;;;7.92;58.36;102389.13;4928427;28;45569;-71
2022/01/15 03:29:14;;;;;;;;;88.00;71.00;;;;;8.04;58.22;102403.19;4928594;28;45773;-73
2022/01/15 03:31:39;;;;;;;;;84.75;67.50;;;;;7.79;58.02;102371.44;4924414;28;45416;-72
2022/01/15 03:34:04;;;;;;;;;84.25;60.25;;;;;7.98;58.33;102393.91;4925284;28;46007;-72
2022/01/15 03:36:30;;;;;;;;;80.00;62.00;;;;;7.70;58.74;102338.91;4926475;28;45352;-73
2022/01/15 03:38:55;;;;;;;;;85.00;67.25;;;;;7.80;58.74;102346.66;4918435;28;45420;-72
2022/01/15 03:41:21;;;;;;;;;83.00;62.25;;;;;7.90;58.05;102375.72;4934192;28;45489;-72
2022/01/15 03:43:46;;;;;;;;;81.25;61.25;;;;;7.85;58.78;102373.56;4928989;28;45537;-72
2022/01/15 03:46:12;;;;;;;;;84.25;62.00;;;;;7.85;59.05;102369.19;4923383;28;45499;-71
2022/01/15 03:48:37;;;;;;;;;86.50;65.75;;;;;7.81;58.71;102348.50;4922859;28;45505;-72
2022/01/15 03:51:03;;;;;;;;;78.25;59.50;;;;;7.89;58.90;102367.63;4921479;28;45358;-72
2022/01/15 03:53:29;;;;;;;;;74.25;53.25;;;;;7.86;58.00;102344.38;4929502;28;46215;-72
2022/01/15 03:55:54;;;;;;;;;78.25;58.75;;;;;7.98;58.17;102365.53;4919920;28;45398;-72
2022/01/15 03:58:20;;;;;;;;;71.50;54.00;;;;;7.46;57.96;102278.03;4930594;28;45538;-72
2022/01/15 04:00:46;;;;;;;;;62.25;51.25;;;;;7.97;56.64;102360.09;4930193;28;45438;-73
2022/01/15 04:03:11;;;;;;;;;63.50;47.75;;;;;7.86;57.30;102328.44;4919253;28;45422;-72
2022/01/15 04:05:37;;;;;;;;;65.00;48.75;;;;;7.87;57.17;102324.94;4922625;28;45491;-71
2022/01/15 04:08:02;;;;;;;;;66.00;47.00;;;;;8.03;57.06;102349.84;4932367;28;45344;-72
2022/01/15 04:10:28;;;;;;;;;63.00;49.25;;;;;8.03;57.30;102341.88;4922417;28;44902;-72
2022/01/15 04:12:53;;;;;;;;;78.25;56.50;;;;;7.83;57.25;102306.94;4934243;28;45583;-72
2022/01/15 04:15:20;;;;;;;;;65.00;50.25;;;;;8.03;56.23;102336.53;4941454;28;45202;-72
2022/01/15 04:17:48;;;;;;;;;61.25;47.00;;;;;8.03;57.58;102336.53;4925355;28;45628;-72
2022/01/15 04:20:16;;;;;;;;;82.50;61.25;;;;;7.78;57.00;102287.13;4937206;28;45317;-72
2022/01/15 04:22:42;;;;;;;;;75.25;58.50;;;;;7.91;56.82;102316.31;4923513;28;45354;-71
2022/01/15 04:25:08;;;;;;;;;70.50;53.00;;;;;7.78;56.97;102289.78;4940491;28;45151;-72
2022/01/15 04:27:33;;;;;;;;;66.75;53.75;;;;;8.03;56.76;102334.78;4943836;28;45203;-71
2022/01/15 04:30:02;;;;;;;;;71.50;55.00;;;;;7.79;56.51;102296.00;4938139;28;45450;-71
2022/01/15 04:32:28;;;;;;;;;69.50;54.00;;;;;7.87;56.80;102308.97;4934220;28;46459;-71
2022/01/15 04:34:54;;;;;;;;;58.75;47.25;;;;;7.95;57.17;102328.06;4928882;28;45230;-72
2022/01/15 04:37:22;;;;;;;;;66.50;52.00;;;;;7.88;56.45;102304.56;4933550;28;45272;-72
2022/01/15 04:39:48;;;;;;;;;68.25;48.75;;;;;7.89;56.38;102298.44;4931231;28;45436;-72
2022/01/15 04:42:15;;;;;;;;;65.00;49.75;;;;;8.04;56.75;102322.44;4927633;28;45512;-73
2022/01/15 04:44:42;;;;;;;;;68.50;53.75;;;;;7.88;57.26;102294.84;4932417;28;45406;-73
2022/01/15 04:47:07;;;;;;;;;73.75;55.75;;;;;7.98;57.23;102314.97;4948099;28;45058;-72
2022/01/15 04:49:33;;;;;;;;;72.75;55.00;;;;;7.83;57.11;102298.03;4939720;28;45130;-72
2022/01/15 04:51:59;;;;;;;;;73.50;56.50;;;;;7.86;57.44;102308.88;4937170;28;45680;-72
2022/01/15 04:54:25;;;;;;;;;78.00;56.25;;;;;7.76;56.73;102299.41;4943731;28;45220;-73
2022/01/15 04:56:50;;;;;;;;;83.25;56.75;;;;;7.39;56.88;102243.88;4937325;28;45173;-73
2022/01/15 04:59:15;;;;;;;;;71.75;58.75;;;;;7.79;56.97;102320.88;4932270;28;45311;-73
2022/01/15 05:01:41;;;;;;;;;71.50;53.75;;;;;7.74;57.61;102320.59;4923896;28;45281;-73
2022/01/15 05:04:06;;;;;;;;;72.00;53.75;;;;;7.73;57.54;102318.75;4929009;28;45338;-72
2022/01/15 05:06:32;;;;;;;;;73.75;56.00;;;;;7.52;56.92;102293.44;4911838;28;45800;-73
2022/01/15 05:09:05;;;;;;;;;76.00;58.75;;;;;7.70;57.35;102322.97;4912899;28;45233;-72
2022/01/15 05:11:48;;;;;;;;;75.75;57.50;;;;;7.49;57.37;102278.22;4930469;28;46225;-72
2022/01/15 05:14:16;;;;;;;;;75.75;57.25;;;;;7.55;57.61;102306.94;4921270;28;45328;-73
2022/01/15 05:16:42;;;;;;;;;75.50;57.25;;;;;7.41;58.07;102278.53;4906399;28;45561;-72
2022/01/15 05:19:08;;;;;;;;;81.00;56.00;;;;;7.59;57.99;102305.41;4917143;28;45428;-73
2022/01/15 05:21:33;;;;;;;;;76.50;58.50;;;;;7.55;57.89;102299.88;4932339;28;45446;-72
2022/01/15 05:23:58;;;;;;;;;75.25;56.50;;;;;7.50;57.51;102290.69;4930795;28;45471;-71
2022/01/15 05:26:24;;;;;;;;;70.50;56.25;;;;;7.30;57.72;102259.25;4924764;28;46078;-72
2022/01/15 05:28:49;;;;;;;;;73.00;54.25;;;;;7.46;57.47;102298.41;4929580;28;45512;-72
2022/01/15 05:31:15;;;;;;;;;79.00;59.25;;;;;7.48;57.49;102308.28;4935945;28;46078;-73
2022/01/15 05:33:40;;;;;;;;;77.50;60.75;;;;;6.99;57.73;102220.97;4930554;28;45497;-73
2022/01/15 05:36:05;;;;;;;;;83.75;61.00;;;;;7.10;58.52;102240.28;4935244;28;45066;-72
2022/01/15 05:38:31;;;;;;;;;73.75;56.00;;;;;7.44;58.20;102300.00;4935766;28;45087;-72
2022/01/15 05:40:56;;;;;;;;;80.75;60.00;;;;;7.47;58.13;102298.47;4924349;28;45565;-73
2022/01/15 05:43:21;;;;;;;;;76.25;60.25;;;;;7.35;58.75;102284.41;4928353;28;45335;-72
2022/01/15 05:45:47;;;;;;;;;81.25;62.25;;;;;7.49;58.61;102307.47;4930686;28;45933;-73
2022/01/15 05:48:12;;;;;;;;;87.00;63.50;;;;;7.46;58.16;102317.91;4912046;28;45470;-72
2022/01/15 05:50:38;;;;;;;;;78.25;61.75;;;;;7.31;58.93;102282.34;4941926;28;45665;-72
2022/01/15 05:53:03;;;;;;;;;86.25;62.25;;;;;7.20;58.31;102269.28;4940667;28;45180;-72
2022/01/15 05:55:28;;;;;;;;;85.00;66.75;;;;;7.48;58.74;102318.03;4942074;28;45635;-72
2022/01/15 05:57:54;;;;;;;;;82.50;60.75;;;;;7.48;58.98;102321.59;4944498;28;45320;-72
2022/01/15 06:00:19;;;;;;;;;84.75;61.00;;;;;7.42;58.58;102313.22;4935946;28;45955;-72
2022/01/15 06:02:44;;;;;;;;;84.75;63.75;;;;;7.52;59.16;102322.69;4940523;28;45103;-73
2022/01/15 06:05:10;;;;;;;;;83.50;62.25;;;;;7.53;58.74;102324.56;4928835;28;45786;-72
2022/01/15 06:07:35;;;;;;;;;93.25;75.50;;;;;7.50;59.52;102324.34;4924869;28;45430;-72
2022/01/15 06:10:01;;;;;;;;;85.50;69.25;;;;;7.27;59.67;102288.31;4928757;28;45511;-72
2022/01/15 06:12:31;;;;;;;;;91.00;79.00;;;;;7.26;59.32;102276.75;4940851;28;45315;-73
2022/01/15 06:14:58;;;;;;;;;88.75;71.25;;;;;7.47;59.06;102313.50;4941813;28;45039;-72
2022/01/15 06:17:24;;;;;;;;;99.50;76.75;;;;;7.49;59.53;102322.50;4934649;28;45250;-72
2022/01/15 06:19:49;;;;;;;;;87.25;70.00;;;;;7.23;59.06;102280.97;4937989;28;45245;-72
2022/01/15 06:22:14;;;;;;;;;88.00;69.00;;;;;7.20;58.89;102282.59;4940581;28;44915;-72
2022/01/15 06:24:40;;;;;;;;;84.25;65.25;;;;;7.43;59.19;102322.13;4939472;28;45261;-72
2022/01/15 06:27:08;;;;;;;;;93.00;74.00;;;;;7.40;59.23;102312.19;4942713;28;45209;-72
2022/01/15 06:29:33;;;;;;;;;97.25;79.25;;;;;7.11;58.42;102287.31;4948322;28;46018;-73
2022/01/15 06:31:58;;;;;;;;;89.75;71.50;;;;;7.41;58.98;102313.09;4941370;28;44944;-72
2022/01/15 06:34:24;;;;;;;;;92.75;74.75;;;;;7.42;59.21;102318.53;4940036;28;45515;-73
2022/01/15 06:36:49;;;;;;;;;92.00;76.75;;;;;6.94;59.24;102237.47;4939177;28;45298;-74
2022/01/15 06:39:14;;;;;;;;;91.25;72.75;;;;;7.25;59.25;102284.63;4948190;28;45468;-73
2022/01/15 06:41:40;;;;;;;;;89.75;72.50;;;;;7.36;59.07;102308.44;4936287;28;45477;-72
2022/01/15 06:44:05;;;;;;;;;87.00;69.50;;;;;7.13;59.28;102268.81;4938794;28;45407;-72
2022/01/15 06:46:31;;;;;;;;;91.75;69.25;;;;;7.11;58.92;102283.72;4943476;28;45318;-73
2022/01/15 06:48:56;;;;;;;;;99.25;74.25;;;;;7.00;59.19;102260.03;4937154;28;46000;-72
2022/01/15 06:51:21;;;;;;;;;87.25;74.50;;;;;7.26;59.28;102307.72;4948695;28;45161;-72
2022/01/15 06:53:47;;;;;;;;;85.75;67.50;;;;;7.11;59.46;102278.41;4931419;28;45343;-73
2022/01/15 06:56:12;;;;;;;;;89.50;70.25;;;;;7.28;59.02;102300.78;4934908;28;45396;-73
2022/01/15 06:58:37;;;;;;;;;89.25;67.50;;;;;7.20;59.50;102292.31;4935197;28;45214;-73
2022/01/15 07:01:03;;;;;;;;;87.50;65.50;;;;;7.29;59.46;102297.28;4939073;28;45059;-72
2022/01/15 07:03:28;;;;;;;;;92.25;73.50;;;;;7.20;59.33;102273.69;4943185;28;45124;-73
2022/01/15 07:05:54;;;;;;;;;84.50;63.75;;;;;7.31;59.50;102290.31;4936568;28;44936;-73
2022/01/15 07:08:19;;;;;;;;;90.25;66.25;;;;;6.99;59.73;102231.59;4932472;28;45477;-73
2022/01/15 07:10:44;;;;;;;;;85.25;63.00;;;;;7.30;58.97;102286.75;4942774;28;45131;-73
2022/01/15 07:13:10;;;;;;;;;81.25;62.25;;;;;7.08;59.17;102241.94;4940942;28;45084;-72
2022/01/15 07:15:36;;;;;;;;;88.75;66.50;;;;;7.04;59.66;102242.53;4937991;28;45211;-72
2022/01/15 07:18:02;;;;;;;;;86.50;66.00;;;;;7.11;58.97;102263.41;4944782;28;46154;-73
2022/01/15 07:20:28;;;;;;;;;88.25;73.00;;;;;6.88;59.53;102232.69;4938981;28;44946;-72
2022/01/15 07:22:54;;;;;;;;;91.00;72.00;;;;;7.16;59.65;102279.63;4934029;28;45305;-73
2022/01/15 07:25:20;;;;;;;;;87.25;67.00;;;;;7.01;59.43;102253.91;4929221;28;45246;-73
2022/01/15 07:27:45;;;;;;;;;88.75;65.75;;;;;6.98;59.88;102242.16;4947836;28;45517;-73
2022/01/15 07:30:13;;;;;;;;;82.75;64.50;;;;;7.16;59.63;102274.31;4941761;28;44720;-72
2022/01/15 07:32:40;;;;;;;;;89.75;70.25;;;;;7.17;59.39;102287.69;4935004;28;45079;-72
2022/01/15 07:35:07;;;;;;;;;88.00;68.75;;;;;7.06;59.28;102262.19;4933974;28;45530;-73
2022/01/15 07:37:34;;;;;;;;;91.50;69.00;;;;;6.91;59.69;102229.28;4927906;28;46805;-72
2022/01/15 07:40:00;;;;;;;;;89.75;70.50;;;;;6.87;59.54;102222.88;4947547;28;45158;-71
2022/01/15 07:42:27;;;;;;;;;84.75;63.75;;;;;6.92;59.64;102224.06;4947147;28;45256;-72
2022/01/15 07:44:53;;;;;;;;;87.75;66.50;;;;;6.96;59.73;102239.41;4936259;28;44725;-72
2022/01/15 07:47:18;;;;;;;;;88.50;75.00;;;;;7.17;59.76;102263.78;4943113;28;45528;-72
2022/01/15 07:49:45;;;;;;;;;90.00;73.00;;;;;7.14;59.66;102265.31;4939468;28;45038;-72
2022/01/15 07:52:10;;;;;;;;;89.50;70.00;;;;;7.19;59.78;102272.78;4951696;28;45001;-73
2022/01/15 07:54:36;;;;;;;;;83.25;66.00;;;;;7.20;59.64;102271.94;4940765;28;45275;-74
2022/01/15 07:57:01;;;;;;;;;87.50;65.75;;;;;7.11;59.55;102257.16;4932247;28;45582;-73
2022/01/15 07:59:28;;;;;;;;;91.50;72.50;;;;;7.08;59.65;102252.56;4940763;28;45356;-72
2022/01/15 08:01:53;;;;;;;;;91.00;70.25;;;;;7.05;59.97;102238.16;4944873;28;45501;-72
2022/01/15 08:04:19;;;;;;;;;100.25;79.00;;;;;7.25;59.99;102271.34;4924774;28;45354;-73
2022/01/15 08:06:44;;;;;;;;;87.25;71.50;;;;;7.21;60.06;102267.56;4937950;28;46699;-73
2022/01/15 08:09:09;;;;;;;;;88.50;66.75;;;;;7.24;59.58;102270.41;4942907;28;45048;-72
2022/01/15 08:11:35;;;;;;;;;89.75;75.25;;;;;7.27;60.33;102267.03;4935046;28;45177;-74
2022/01/15 08:14:01;;;;;;;;;92.00;76.25;;;;;6.93;60.08;102195.75;4949353;28;45676;-74
2022/01/15 08:16:27;;;;;;;;;91.25;71.75;;;;;7.09;60.16;102235.78;4939203;28;45444;-73
2022/01/15 08:18:53;;;;;;;;;90.75;68.75;;;;;6.96;60.10;102218.16;4950279;28;46203;-75
2022/01/15 08:21:18;;;;;;;;;95.50;74.00;;;;;7.29;59.92;102249.44;4949937;28;45041;-72
2022/01/15 08:23:44;;;;;;;;;91.75;75.00;;;;;7.18;59.86;102236.38;4945266;28;45300;-73
2022/01/15 08:26:09;;;;;;;;;84.50;71.25;;;;;7.20;59.58;102242.72;4950884;28;45262;-74
2022/01/15 08:28:37;;;;;;;;;87.75;70.50;;;;;7.31;59.75;102245.13;4952577;28;45052;-75
2022/01/15 08:31:04;;;;;;;;;83.00;65.00;;;;;7.43;60.19;102253.91;4927934;28;44952;-75
2022/01/15 08:33:30;;;;;;;;;79.25;57.00;;;;;7.11;59.69;102218.22;4950304;28;45238;-74
2022/01/15 08:35:55;;;;;;;;;98.50;78.00;;;;;7.41;59.55;102255.56;4950264;28;46637;-75
2022/01/15 08:38:21;;;;;;;;;95.50;83.75;;;;;7.22;59.93;102248.13;4939697;28;45132;-73
2022/01/15 08:40:46;;;;;;;;;95.25;76.50;;;;;7.18;59.75;102239.03;4928234;28;45210;-73
2022/01/15 08:43:12;;;;;;;;;94.75;74.25;;;;;7.37;60.37;102254.44;4932583;28;45456;-73
2022/01/15 08:45:38;;;;;;;;;88.50;72.25;;;;;7.42;59.81;102257.38;4929740;28;45551;-72
2022/01/15 08:48:05;;;;;;;;;103.00;80.25;;;;;7.44;59.33;102263.72;4943951;28;45287;-74
2022/01/15 08:50:30;;;;;;;;;101.00;81.75;;;;;7.48;59.18;102257.78;4937507;28;45396;-75
2022/01/15 08:52:56;;;;;;;;;90.75;70.25;;;;;7.35;59.47;102233.88;4930270;28;45326;-74
2022/01/15 08:55:21;;;;;;;;;99.75;82.25;;;;;7.22;59.69;102202.03;4919933;28;47101;-74
2022/01/15 08:57:47;;;;;;;;;95.25;78.50;;;;;7.28;59.86;102216.63;4936884;28;45114;-74
2022/01/15 09:00:17;;;;;;;;;99.00;86.50;;;;;7.14;58.81;102205.13;4927786;28;45386;-74
2022/01/15 09:02:43;;;;;;;;;95.75;76.25;;;;;7.59;59.42;102277.06;4930550;28;45623;-73
2022/01/15 09:05:09;;;;;;;;;98.00;78.50;;;;;7.59;59.09;102257.50;4925865;28;46259;-75
2022/01/15 09:07:35;;;;;;;;;103.67;84.67;;;;;7.64;59.54;102272.03;4926806;28;45355;-74
2022/01/15 09:10:00;;;;;;;;;99.50;76.50;;;;;7.62;59.31;102274.59;4921148;28;45399;-74
2022/01/15 09:12:25;;;;;;;;;97.50;79.00;;;;;7.61;59.47;102270.09;4924987;28;45817;-73
2022/01/15 09:14:58;;;;;;;;;94.00;82.25;;;;;7.67;59.69;102273.16;4931819;28;45276;-71
2022/01/15 09:17:24;;;;;;;;;90.25;77.75;;;;;7.67;58.71;102261.56;4934910;28;45404;-70
2022/01/15 09:19:49;;;;;;;;;89.25;72.75;;;;;7.72;58.97;102269.03;4936736;28;45568;-69
2022/01/15 09:22:15;;;;;;;;;92.75;82.75;;;;;7.82;59.30;102273.19;4943717;28;45173;-74
2022/01/15 09:24:44;;;;;;;;;96.50;73.00;;;;;7.80;58.27;102263.25;4935752;28;45539;-70
2022/01/15 09:30:12;;;;;;;;;97.50;72.75;;;;;7.72;58.87;102244.16;4934848;28;45319;-71
2022/01/15 09:32:39;;;;;;;;;99.33;84.00;;;;;7.91;58.71;102278.16;4942766;28;45332;-72
2022/01/15 09:35:08;;;;;;;;;90.00;69.50;;;;;7.64;58.65;102234.78;4943606;28;46199;-70
2022/01/15 09:37:34;;;;;;;;;90.50;75.00;;;;;7.88;59.23;102275.31;4938595;28;45470;-71
2022/01/15 09:39:59;;;;;;;;;90.50;72.25;;;;;7.77;58.68;102253.38;4932193;28;45519;-73
2022/01/15 09:42:25;;;;;;;;;110.33;85.67;;;;;7.55;58.93;102213.84;4939924;28;45080;-70
2022/01/15 09:44:53;;;;;;;;;90.00;72.75;;;;;7.87;58.87;102262.81;4941955;28;45145;-72
2022/01/15 09:47:21;;;;;;;;;90.75;77.00;;;;;8.01;58.45;102279.66;4943448;28;45274;-71
2022/01/15 09:49:48;;;;;;;;;89.50;73.50;;;;;8.04;58.09;102290.47;4940186;28;45048;-72
2022/01/15 09:52:16;;;;;;;;;91.00;77.33;;;;;8.03;58.41;102283.31;4943867;28;45403;-71
2022/01/15 09:54:41;;;;;;;;;95.00;80.67;;;;;7.75;58.22;102221.34;4938941;28;45385;-72
2022/01/15 09:57:07;;;;;;;;;95.50;78.50;;;;;7.68;57.81;102237.72;4944696;28;45053;-72
2022/01/15 09:59:32;;;;;;;;;100.25;75.50;;;;;8.15;57.67;102275.16;4946314;28;45100;-73
2022/01/15 10:02:03;;;;;;;;;93.00;76.00;;;;;7.75;58.03;102202.72;4945255;28;45154;-70
2022/01/15 10:04:32;;;;;;;;;90.25;72.25;;;;;8.17;58.30;102266.44;4938375;28;46737;-71
2022/01/15 10:07:09;;;;;;;;;91.00;74.50;;;;;8.20;57.78;102265.69;4944433;28;45151;-74
2022/01/15 10:09:35;;;;;;;;;100.25;84.50;;;;;8.12;57.44;102260.84;4941995;28;45132;-70
2022/01/15 10:12:01;;;;;;;;;124.33;98.00;;;;;7.55;57.37;102156.25;4939067;28;45024;-72
2022/01/15 10:14:29;;;;;;;;;99.00;86.75;;;;;8.24;57.95;102263.31;4936181;28;45386;-72
2022/01/15 10:16:57;;;;;;;;;92.00;80.00;;;;;8.16;57.55;102280.56;4933816;28;45529;-73
2022/01/15 10:19:37;;;;;;;;;93.33;74.33;;;;;7.89;58.09;102229.25;4915505;28;44928;-73
2022/01/15 10:22:11;;;;;;;;;91.75;73.75;;;;;8.21;56.92;102273.78;4933564;28;45370;-71
2022/01/15 10:24:39;;;;;;;;;95.25;78.75;;;;;8.10;57.90;102235.88;4915230;28;47253;-73
2022/01/15 10:27:36;;;;;;;;;98.25;83.00;;;;;8.38;56.94;102266.81;4946186;28;45018;-71
2022/01/15 10:30:07;;;;;;;;;95.25;80.25;;;;;8.44;56.42;102269.88;4951732;28;45190;-71
2022/01/15 10:32:36;;;;;;;;;109.67;92.33;;;;;8.48;57.24;102263.91;4951574;28;45241;-71
2022/01/15 10:35:15;;;;;;;;;92.75;76.75;;;;;8.50;55.90;102256.00;4934793;28;48613;-72
2022/01/15 10:37:55;;;;;;;;;89.33;69.00;;;;;8.40;56.69;102233.22;4938456;28;45025;-72
2022/01/15 10:40:25;;;;;;;;;96.00;81.00;;;;;8.58;56.62;102238.72;4929201;28;45395;-72
2022/01/15 10:42:57;;;;;;;;;90.00;81.25;;;;;8.65;56.34;102242.66;4940918;28;45510;-71
2022/01/15 10:45:25;;;;;;;;;95.33;84.33;;;;;8.58;55.88;102216.47;4922576;28;47343;-69
2022/01/15 10:47:55;;;;;;;;;88.25;68.50;;;;;8.79;56.59;102236.41;4953062;28;45500;-73
2022/01/15 10:50:23;;;;;;;;;90.75;77.25;;;;;8.87;56.29;102234.16;4945468;28;44929;-72
2022/01/15 10:52:52;;;;;;;;;93.25;79.50;;;;;8.85;56.31;102207.41;4940354;28;45204;-72
2022/01/15 10:55:30;;;;;;;;;88.00;67.25;;;;;9.00;55.38;102228.69;4938336;28;45189;-73
2022/01/15 10:57:59;;;;;;;;;92.25;79.00;;;;;9.07;55.04;102224.63;4933153;28;45122;-73
2022/01/15 11:00:36;;;;;;;;;97.33;82.33;;;;;9.11;55.73;102223.97;4933608;28;45360;-73
2022/01/15 11:03:05;;;;;;;;;93.25;82.50;;;;;9.18;55.10;102218.13;4933300;28;45193;-73
2022/01/15 11:05:52;;;;;;;;;103.67;89.33;;;;;9.26;54.88;102217.66;4938367;28;45680;-71
2022/01/15 11:08:22;;;;;;;;;90.75;80.00;;;;;9.31;54.93;102214.41;4931859;28;45367;-73
2022/01/15 11:10:55;;;;;;;;;108.00;84.00;;;;;9.19;55.10;102187.09;4925839;28;45278;-75
2022/01/15 11:13:31;;;;;;;;;102.67;86.33;;;;;9.44;54.79;102212.41;4934244;28;44946;-74
2022/01/15 11:16:00;;;;;;;;;102.33;87.00;;;;;9.46;54.25;102229.44;4932959;28;45401;-75
2022/01/15 11:18:32;;;;;;;;;98.33;89.33;;;;;9.26;54.49;102173.25;4931929;28;45261;-75
2022/01/15 11:21:00;;;;;;;;;112.67;91.00;;;;;9.28;54.08;102174.22;4943628;28;45231;-75
2022/01/15 11:23:27;;;;;;;;;100.00;88.33;;;;;9.56;54.05;102203.31;4934531;28;45208;-73
2022/01/15 11:25:56;;;;;;;;;106.67;92.33;;;;;9.62;53.77;102210.75;4932154;28;47713;-74
2022/01/15 11:28:25;;;;;;;;;107.33;93.33;;;;;9.28;53.34;102141.31;4950291;28;45149;-71
2022/01/15 11:30:55;;;;;;;;;104.33;89.33;;;;;9.36;53.75;102154.22;4948889;28;45280;-69
2022/01/15 11:33:22;;;;;;;;;109.67;91.33;;;;;9.70;53.33;102185.41;4944384;28;45291;-71
2022/01/15 11:35:48;;;;;;;;;101.75;86.25;;;;;9.68;53.85;102170.13;4931397;28;45822;-69
2022/01/15 11:38:46;;;;;;;;;109.33;95.33;;;;;9.84;52.76;102187.88;4931520;28;45270;-71